Alvada, Ohio
Current Conditions -  °F | °C
As of 9:53 PM on Tuesday 21 Oct 2014 (Local Time) from KFDY Reporting Station
Overcast Overcast  
Wind Chill: 40°   Ceiling: 2000
Heat Index: 46°   Visibility: 10mi
Dew Point: 38°   Wind: 13mph
Humidity: 73%   Direction: 350°N
Pressure: 30.18"   Gusts: NA
Location:  41.05°N, 83.4°W
Report Text: KFDY 220153Z AUTO 35011KT 10SM OVC020 08/03 A3018 RMK AO2 SLP219 T00780033
Loading
Personal Weather Stations






























Interactive Weather Map
Tropical Storm Tracking
New forecast layout! Learn more

10-Day Weather Forecast

Advertisements
Track Severe Weather on mobile